createdAt,value
2023-05-02T00:00:28.114Z,50.86
2023-05-02T00:01:28.334Z,50.35
2023-05-02T00:02:28.556Z,50.76
2023-05-02T00:03:28.740Z,50.35
2023-05-02T00:04:28.742Z,50.65
2023-05-02T00:05:28.817Z,50.56
2023-05-02T00:06:28.987Z,50.76
2023-05-02T00:07:29.065Z,50.65
2023-05-02T00:08:29.162Z,50.76
2023-05-02T00:09:29.291Z,50.76
2023-05-02T00:10:29.385Z,50.56
2023-05-02T00:11:29.500Z,50.76
2023-05-02T00:12:29.611Z,50.65
2023-05-02T00:13:29.823Z,50.78
2023-05-02T00:14:29.959Z,50.98
2023-05-02T00:15:30.067Z,50.86
2023-05-02T00:16:30.210Z,50.98
2023-05-02T00:17:30.425Z,50.68
2023-05-02T00:18:30.377Z,50.88
2023-05-02T00:19:30.508Z,50.88
2023-05-02T00:20:30.614Z,51.09
2023-05-02T00:21:30.825Z,50.88
2023-05-02T00:22:30.924Z,50.98
2023-05-02T00:23:31.147Z,51.09
2023-05-02T00:24:31.271Z,51.09
2023-05-02T00:25:31.379Z,51.39
2023-05-02T00:26:31.492Z,51.18
2023-05-02T00:27:31.588Z,51.29
2023-05-02T00:28:31.678Z,51.31
2023-05-02T00:29:31.906Z,51.90
2023-05-02T00:30:31.996Z,51.72
2023-05-02T00:31:32.234Z,51.49
2023-05-02T00:32:32.311Z,51.49
2023-05-02T00:33:32.417Z,51.70
2023-05-02T00:34:32.541Z,51.49
2023-05-02T00:35:32.677Z,51.59
2023-05-02T00:36:32.771Z,52.03
2023-05-02T00:37:32.882Z,51.92
2023-05-02T00:38:33.117Z,51.92
2023-05-02T00:39:33.212Z,52.03
2023-05-02T00:40:33.332Z,52.12
2023-05-02T00:41:33.438Z,52.33
2023-05-02T00:42:33.538Z,52.23
2023-05-02T00:43:33.658Z,52.53
2023-05-02T00:44:33.789Z,52.53
2023-05-02T00:45:33.913Z,52.63
2023-05-02T00:46:34.054Z,52.84
2023-05-02T00:47:34.441Z,52.84
2023-05-02T00:48:34.290Z,52.76
2023-05-02T00:49:34.421Z,53.37
2023-05-02T00:50:34.527Z,53.06
2023-05-02T00:51:34.751Z,53.27
2023-05-02T00:52:34.858Z,53.27
2023-05-02T00:53:34.981Z,53.47
2023-05-02T00:54:35.114Z,53.67
2023-05-02T00:55:35.226Z,53.57
2023-05-02T00:56:35.328Z,53.78
2023-05-02T00:57:35.563Z,54.18
2023-05-02T00:58:35.670Z,54.39
2023-05-02T00:59:35.804Z,54.18
2023-05-02T01:00:35.914Z,54.31
2023-05-02T01:01:36.046Z,54.61
2023-05-02T01:02:36.197Z,54.72
2023-05-02T01:03:36.386Z,55.12
2023-05-02T01:04:36.511Z,54.72
2023-05-02T01:05:36.630Z,54.92
2023-05-02T01:06:36.785Z,55.02
2023-05-02T01:07:36.944Z,55.22
2023-05-02T01:08:37.041Z,55.22
2023-05-02T01:09:37.286Z,55.43
2023-05-02T01:10:37.394Z,55.55
2023-05-02T01:11:37.798Z,55.66
2023-05-02T01:12:37.790Z,55.86
2023-05-02T01:13:38.010Z,55.96
2023-05-02T01:14:38.138Z,56.07
2023-05-02T01:15:38.340Z,56.27
2023-05-02T01:16:38.422Z,56.27
2023-05-02T01:17:38.592Z,56.27
2023-05-02T01:18:38.689Z,56.68
2023-05-02T01:19:38.898Z,56.57
2023-05-02T01:20:39.005Z,56.47
2023-05-02T01:21:39.121Z,56.68
2023-05-02T01:22:39.265Z,56.98
2023-05-02T01:23:39.364Z,57.18
2023-05-02T01:24:39.470Z,57.08
2023-05-02T01:25:39.612Z,56.98
2023-05-02T01:26:39.721Z,57.18
2023-05-02T01:27:39.840Z,57.39
2023-05-02T01:28:39.951Z,57.39
2023-05-02T01:29:40.181Z,57.26
2023-05-02T01:30:40.269Z,57.36
2023-05-02T01:31:40.572Z,57.36
2023-05-02T01:32:40.717Z,57.56
2023-05-02T01:33:40.804Z,57.87
2023-05-02T01:34:40.922Z,57.77
2023-05-02T01:35:41.044Z,57.79
2023-05-02T01:36:41.160Z,57.90
2023-05-02T01:37:41.409Z,58.40
2023-05-02T01:38:41.526Z,58.40
2023-05-02T01:39:41.646Z,58.51
2023-05-02T01:40:41.738Z,58.92
2023-05-02T01:41:41.986Z,59.01
2023-05-02T01:42:42.087Z,59.22
2023-05-02T01:43:42.336Z,59.22
2023-05-02T01:44:42.439Z,59.53
2023-05-02T01:45:42.559Z,59.83
2023-05-02T01:46:42.774Z,59.83
2023-05-02T01:47:42.856Z,60.06
2023-05-02T01:48:42.930Z,60.16
2023-05-02T01:49:43.062Z,60.37
2023-05-02T01:50:43.162Z,60.27
2023-05-02T01:51:43.273Z,60.68
2023-05-02T01:52:43.371Z,60.47
2023-05-02T01:53:43.591Z,60.68
2023-05-02T01:54:43.745Z,60.98
2023-05-02T01:55:43.874Z,61.18
2023-05-02T01:56:43.990Z,61.18
2023-05-02T01:57:44.089Z,61.38
2023-05-02T01:58:44.198Z,61.49
2023-05-02T01:59:44.339Z,61.79
2023-05-02T02:00:44.458Z,61.99
2023-05-02T02:01:44.599Z,62.10
2023-05-02T02:02:44.672Z,62.30
2023-05-02T02:03:44.855Z,62.40
2023-05-02T02:04:44.981Z,62.51
2023-05-02T02:05:45.118Z,62.40
2023-05-02T02:06:45.371Z,62.92
2023-05-02T02:07:45.413Z,62.81
2023-05-02T02:08:45.545Z,63.12
2023-05-02T02:09:45.668Z,63.12
2023-05-02T02:10:45.782Z,63.22
2023-05-02T02:11:45.986Z,63.32
2023-05-02T02:12:46.103Z,63.53
2023-05-02T02:13:46.304Z,63.62
2023-05-02T02:14:46.445Z,63.83
2023-05-02T02:15:46.537Z,64.06
2023-05-02T02:16:46.672Z,64.26
2023-05-02T02:17:46.818Z,64.17
2023-05-02T02:18:46.885Z,64.26
2023-05-02T02:19:47.103Z,64.37
2023-05-02T02:20:47.221Z,64.67
2023-05-02T02:21:47.440Z,64.67
2023-05-02T02:22:47.545Z,64.67
2023-05-02T02:23:47.647Z,64.78
2023-05-02T02:24:47.892Z,64.57
2023-05-02T02:25:47.980Z,64.98
2023-05-02T02:26:48.240Z,64.78
2023-05-02T02:27:48.331Z,64.78
2023-05-02T02:28:48.467Z,64.87
2023-05-02T02:29:48.574Z,64.87
2023-05-02T02:30:48.709Z,65.11
2023-05-02T02:31:48.822Z,65.62
2023-05-02T02:32:48.928Z,65.83
2023-05-02T02:33:49.065Z,65.92
2023-05-02T02:34:49.203Z,66.03
2023-05-02T02:35:49.349Z,65.92
2023-05-02T02:36:49.547Z,66.13
2023-05-02T02:37:49.694Z,65.62
2023-05-02T02:38:49.774Z,65.72
2023-05-02T02:39:49.899Z,66.03
2023-05-02T02:40:50.024Z,66.03
2023-05-02T02:41:50.123Z,65.65
2023-05-02T02:42:50.351Z,66.06
2023-05-02T02:43:50.464Z,66.16
2023-05-02T02:44:50.718Z,65.86
2023-05-02T02:45:50.883Z,65.75
2023-05-02T02:46:51.002Z,65.55
2023-05-02T02:47:51.158Z,65.95
2023-05-02T02:48:51.310Z,66.27
2023-05-02T02:49:51.434Z,66.27
2023-05-02T02:50:51.591Z,66.36
2023-05-02T02:51:51.726Z,66.27
2023-05-02T02:52:51.885Z,66.47
2023-05-02T02:53:52.020Z,66.70
2023-05-02T02:54:52.387Z,66.80
2023-05-02T02:55:52.330Z,66.91
2023-05-02T02:56:52.566Z,67.01
2023-05-02T02:57:52.688Z,66.91
2023-05-02T02:58:52.820Z,66.91
2023-05-02T02:59:52.997Z,66.91
2023-05-02T03:00:53.159Z,66.91
2023-05-02T03:01:53.350Z,66.91
2023-05-02T03:02:53.568Z,67.11
2023-05-02T03:03:53.736Z,67.21
2023-05-02T03:04:53.877Z,67.11
2023-05-02T03:05:54.027Z,67.52
2023-05-02T03:06:54.249Z,67.21
2023-05-02T03:07:54.365Z,67.21
2023-05-02T03:08:54.515Z,67.11
2023-05-02T03:09:54.704Z,67.32
2023-05-02T03:10:54.889Z,67.41
2023-05-02T03:11:55.052Z,67.62
2023-05-02T03:12:55.278Z,67.72
2023-05-02T03:13:55.398Z,67.85
2023-05-02T03:14:55.534Z,68.06
2023-05-02T03:15:55.774Z,68.16
2023-05-02T03:16:55.783Z,68.26
2023-05-02T03:17:55.968Z,68.57
2023-05-02T03:18:56.064Z,68.88
2023-05-02T03:19:56.210Z,69.08
2023-05-02T03:20:56.302Z,69.29
2023-05-02T03:21:56.426Z,69.38
2023-05-02T03:22:56.547Z,69.52
2023-05-02T03:23:56.675Z,69.69
2023-05-02T03:24:56.909Z,69.73
2023-05-02T03:25:57.029Z,69.82
2023-05-02T03:26:57.265Z,70.03
2023-05-02T03:27:57.386Z,70.14
2023-05-02T03:28:57.658Z,70.34
2023-05-02T03:29:57.924Z,70.64
2023-05-02T03:30:57.950Z,70.54
2023-05-02T03:31:58.139Z,70.75
2023-05-02T03:32:58.468Z,71.05
2023-05-02T03:33:58.365Z,71.36
2023-05-02T03:34:58.522Z,71.56
2023-05-02T03:35:58.630Z,71.77
2023-05-02T03:36:58.881Z,71.70
2023-05-02T03:37:59.033Z,71.91
2023-05-02T03:38:59.159Z,72.11
2023-05-02T03:39:59.549Z,72.21
2023-05-02T03:40:59.504Z,72.52
2023-05-02T03:41:59.574Z,72.92
2023-05-02T03:42:59.812Z,72.72
2023-05-02T03:43:59.944Z,72.82
2023-05-02T03:45:00.122Z,73.03
2023-05-02T03:46:00.209Z,73.03
2023-05-02T03:47:00.506Z,73.03
2023-05-02T03:48:00.633Z,73.23
2023-05-02T03:49:00.714Z,73.33
2023-05-02T03:50:01.198Z,73.44
2023-05-02T03:51:01.135Z,73.33
2023-05-02T03:52:01.270Z,73.33
2023-05-02T03:53:01.493Z,73.44
2023-05-02T03:54:01.607Z,73.54
2023-05-02T03:55:01.756Z,73.54
2023-05-02T03:56:01.847Z,73.84
2023-05-02T03:57:02.078Z,73.94
2023-05-02T03:58:02.216Z,73.74
2023-05-02T03:59:02.344Z,73.94
2023-05-02T04:00:02.716Z,73.94
2023-05-02T04:01:02.636Z,73.84
2023-05-02T04:02:02.763Z,74.05
2023-05-02T04:03:02.932Z,74.25
2023-05-02T04:04:03.074Z,74.15
2023-05-02T04:05:03.225Z,74.25
2023-05-02T04:06:03.381Z,74.49
2023-05-02T04:07:03.502Z,74.80
2023-05-02T04:08:03.641Z,74.56
2023-05-02T04:09:03.765Z,74.25
2023-05-02T04:10:04.151Z,74.35
2023-05-02T04:11:04.095Z,74.46
2023-05-02T04:12:04.216Z,74.56
2023-05-02T04:13:04.471Z,74.35
2023-05-02T04:14:04.587Z,74.35
2023-05-02T04:15:04.729Z,74.15
2023-05-02T04:16:04.873Z,73.84
2023-05-02T04:17:05.019Z,73.94
2023-05-02T04:18:05.194Z,73.94
2023-05-02T04:19:05.301Z,73.84
2023-05-02T04:20:05.824Z,73.64
2023-05-02T04:21:05.654Z,73.54
2023-05-02T04:22:05.793Z,73.33
2023-05-02T04:23:05.902Z,73.54
2023-05-02T04:24:06.030Z,73.44
2023-05-02T04:25:06.314Z,73.33
2023-05-02T04:26:06.461Z,72.92
2023-05-02T04:27:06.603Z,72.92
2023-05-02T04:28:06.743Z,72.92
2023-05-02T04:29:06.883Z,72.99
2023-05-02T04:30:07.010Z,72.89
2023-05-02T04:31:07.159Z,72.58
2023-05-02T04:32:07.263Z,71.97
2023-05-02T04:33:07.437Z,71.67
2023-05-02T04:34:07.558Z,71.63
2023-05-02T04:35:07.714Z,71.63
2023-05-02T04:36:07.839Z,71.33
2023-05-02T04:37:07.963Z,71.63
2023-05-02T04:38:08.106Z,71.43
2023-05-02T04:39:08.261Z,71.33
2023-05-02T04:40:08.381Z,71.19
2023-05-02T04:41:09.260Z,70.78
2023-05-02T04:42:08.712Z,70.89
2023-05-02T04:43:08.826Z,70.57
2023-05-02T04:44:08.962Z,70.57
2023-05-02T04:45:09.112Z,70.27
2023-05-02T04:46:09.248Z,70.07
2023-05-02T04:47:09.412Z,70.17
2023-05-02T04:48:09.503Z,70.24
2023-05-02T04:49:09.625Z,70.04
2023-05-02T04:50:09.764Z,69.63
2023-05-02T04:51:09.858Z,69.42
2023-05-02T04:52:09.968Z,69.53
2023-05-02T04:53:10.189Z,69.42
2023-05-02T04:54:10.316Z,69.12
2023-05-02T04:55:10.486Z,69.32
2023-05-02T04:56:10.598Z,69.02
2023-05-02T04:57:10.730Z,68.81
2023-05-02T04:58:10.840Z,69.12
2023-05-02T04:59:10.973Z,68.91
2023-05-02T05:00:11.099Z,68.91
2023-05-02T05:01:11.238Z,68.81
2023-05-02T05:02:11.397Z,69.02
2023-05-02T05:03:11.698Z,68.81
2023-05-02T05:04:11.806Z,68.91
2023-05-02T05:05:12.484Z,69.02
2023-05-02T05:06:12.029Z,69.02
2023-05-02T05:07:12.234Z,69.12
2023-05-02T05:08:12.342Z,69.22
2023-05-02T05:09:12.460Z,69.12
2023-05-02T05:10:12.566Z,69.02
2023-05-02T05:11:12.682Z,69.22
2023-05-02T05:12:12.791Z,69.53
2023-05-02T05:13:12.927Z,69.35
2023-05-02T05:14:13.015Z,69.35
2023-05-02T05:15:13.252Z,69.66
2023-05-02T05:16:13.478Z,69.93
2023-05-02T05:17:13.476Z,69.42
2023-05-02T05:18:13.659Z,69.42
2023-05-02T05:19:13.722Z,69.53
2023-05-02T05:20:13.857Z,69.42
2023-05-02T05:21:13.965Z,69.42
2023-05-02T05:22:14.167Z,69.53
2023-05-02T05:23:14.392Z,69.63
2023-05-02T05:24:14.496Z,69.83
2023-05-02T05:25:21.784Z,69.63
2023-05-02T05:26:14.850Z,69.53
2023-05-02T05:27:15.074Z,69.32
2023-05-02T05:28:16.822Z,69.29
2023-05-02T05:29:15.371Z,69.19
2023-05-02T05:30:15.488Z,69.19
2023-05-02T05:31:16.818Z,69.09
2023-05-02T05:32:15.781Z,68.95
2023-05-02T05:33:15.987Z,68.85
2023-05-02T05:34:16.126Z,68.95
2023-05-02T05:35:16.196Z,68.75
2023-05-02T05:36:16.344Z,68.65
2023-05-02T05:37:16.427Z,68.65
2023-05-02T05:38:16.531Z,68.82
2023-05-02T05:39:16.636Z,68.51
2023-05-02T05:40:16.747Z,67.97
2023-05-02T05:41:16.842Z,67.66
2023-05-02T05:42:16.936Z,68.01
2023-05-02T05:43:17.158Z,68.18
2023-05-02T05:44:17.266Z,67.97
2023-05-02T05:45:17.392Z,67.97
2023-05-02T05:46:17.465Z,67.87
2023-05-02T05:47:17.631Z,67.57
2023-05-02T05:48:17.740Z,67.43
2023-05-02T05:49:17.811Z,67.33
2023-05-02T05:50:17.928Z,67.33
2023-05-02T05:51:18.113Z,67.22
2023-05-02T05:52:18.210Z,67.10
2023-05-02T05:53:18.308Z,66.76
2023-05-02T05:54:18.435Z,65.71
2023-05-02T05:55:18.528Z,64.87
2023-05-02T05:56:18.641Z,63.69
2023-05-02T05:57:18.760Z,62.11
2023-05-02T05:58:18.862Z,60.71
2023-05-02T05:59:18.954Z,59.44
2023-05-02T06:00:19.052Z,57.87
2023-05-02T06:01:19.168Z,56.30
2023-05-02T06:02:19.273Z,55.90
2023-05-02T06:03:19.628Z,55.87
2023-05-02T06:04:19.551Z,55.77
2023-05-02T06:05:19.602Z,56.02
2023-05-02T06:06:19.712Z,57.14
2023-05-02T06:07:19.782Z,56.60
2023-05-02T06:08:19.857Z,56.83
2023-05-02T06:09:20.051Z,56.50
2023-05-02T06:10:20.139Z,56.07
2023-05-02T06:11:20.240Z,56.17
2023-05-02T06:12:20.310Z,55.54
2023-05-02T06:13:20.501Z,55.66
2023-05-02T06:14:20.554Z,55.64
2023-05-02T06:15:20.787Z,54.81
2023-05-02T06:16:20.897Z,54.88
2023-05-02T06:17:20.982Z,54.18
2023-05-02T06:18:21.065Z,54.08
2023-05-02T06:19:21.137Z,53.78
2023-05-02T06:20:21.209Z,54.08
2023-05-02T06:21:21.320Z,54.15
2023-05-02T06:22:21.372Z,53.22
2023-05-02T06:23:21.442Z,53.32
2023-05-02T06:24:21.498Z,53.30
2023-05-02T06:25:21.562Z,53.20
2023-05-02T06:26:21.633Z,52.89
2023-05-02T06:27:21.697Z,52.57
2023-05-02T06:28:21.752Z,53.20
2023-05-02T06:29:22.229Z,54.46
2023-05-02T06:30:22.087Z,55.08
2023-05-02T06:31:22.196Z,55.59
2023-05-02T06:32:22.243Z,55.79
2023-05-02T06:33:22.305Z,55.89
2023-05-02T06:34:22.351Z,55.91
2023-05-02T06:35:22.512Z,56.32
2023-05-02T06:36:22.578Z,56.42
2023-05-02T06:37:22.634Z,56.29
2023-05-02T06:38:22.688Z,56.32
2023-05-02T06:39:22.737Z,56.82
2023-05-02T06:40:22.797Z,56.70
2023-05-02T06:41:22.887Z,55.87
2023-05-02T06:42:22.978Z,55.21
2023-05-02T06:43:23.053Z,54.91
2023-05-02T06:44:23.116Z,55.11
2023-05-02T06:45:23.192Z,54.48
2023-05-02T06:46:23.289Z,54.28
2023-05-02T06:47:23.397Z,54.08
2023-05-02T06:48:23.499Z,54.08
2023-05-02T06:49:23.530Z,54.60
2023-05-02T06:50:23.553Z,54.40
2023-05-02T06:51:23.633Z,54.58
2023-05-02T06:52:23.698Z,54.71
2023-05-02T06:53:23.736Z,54.88
2023-05-02T06:54:23.894Z,55.56
2023-05-02T06:55:23.945Z,56.27
2023-05-02T06:56:23.991Z,55.83
2023-05-02T06:57:24.027Z,54.78
2023-05-02T06:58:24.080Z,53.92
2023-05-02T06:59:24.118Z,52.77
2023-05-02T07:00:24.161Z,54.50
2023-05-02T07:01:24.342Z,55.21
2023-05-02T07:02:24.377Z,56.57
2023-05-02T07:03:24.390Z,56.47
2023-05-02T07:04:24.500Z,57.32
2023-05-02T07:05:24.537Z,57.56
2023-05-02T07:06:24.617Z,57.83
2023-05-02T07:07:24.650Z,58.29
2023-05-02T07:08:24.697Z,60.16
2023-05-02T07:09:24.781Z,61.83
2023-05-02T07:10:24.841Z,62.44
2023-05-02T07:11:24.890Z,62.27
2023-05-02T07:12:24.943Z,63.01
2023-05-02T07:13:24.994Z,64.38
2023-05-02T07:14:25.032Z,65.32
2023-05-02T07:15:25.092Z,65.86
2023-05-02T07:16:25.203Z,66.37
2023-05-02T07:17:25.244Z,66.57
2023-05-02T07:18:25.383Z,66.54
2023-05-02T07:19:25.509Z,65.96
2023-05-02T07:20:25.637Z,66.67
2023-05-02T07:21:25.733Z,66.88
2023-05-02T07:22:25.782Z,66.54
2023-05-02T07:23:25.887Z,66.10
2023-05-02T07:24:25.970Z,65.93
2023-05-02T07:25:26.059Z,66.24
2023-05-02T07:26:26.139Z,66.44
2023-05-02T07:27:26.228Z,66.57
2023-05-02T07:28:26.288Z,67.08
2023-05-02T07:29:26.388Z,67.48
2023-05-02T07:30:26.427Z,66.33
2023-05-02T07:31:26.626Z,66.24
2023-05-02T07:32:26.787Z,66.44
2023-05-02T07:33:26.693Z,66.88
2023-05-02T07:34:26.769Z,67.18
2023-05-02T07:35:26.831Z,67.48
2023-05-02T07:36:26.963Z,67.82
2023-05-02T07:37:27.045Z,67.99
2023-05-02T07:38:27.145Z,67.58
2023-05-02T07:39:27.228Z,67.99
2023-05-02T07:40:27.317Z,67.99
2023-05-02T07:41:27.420Z,67.79
2023-05-02T07:42:27.491Z,67.48
2023-05-02T07:43:27.557Z,67.58
2023-05-02T07:44:27.673Z,68.40
2023-05-02T07:45:27.737Z,68.19
2023-05-02T07:46:27.879Z,68.23
2023-05-02T07:47:28.006Z,68.32
2023-05-02T07:48:28.130Z,68.87
2023-05-02T07:49:28.177Z,69.10
2023-05-02T07:50:28.387Z,69.81
2023-05-02T07:51:28.474Z,69.60
2023-05-02T07:52:28.546Z,69.78
2023-05-02T07:53:28.652Z,69.57
2023-05-02T07:54:28.757Z,69.57
2023-05-02T07:55:28.853Z,69.78
2023-05-02T07:56:28.964Z,70.01
2023-05-02T07:57:29.028Z,70.55
2023-05-02T07:58:29.159Z,71.06
2023-05-02T07:59:29.258Z,71.26
2023-05-02T08:00:29.327Z,71.57
2023-05-02T08:01:29.447Z,71.80
2023-05-02T08:02:29.721Z,71.91
2023-05-02T08:03:29.878Z,72.52
2023-05-02T08:04:30.073Z,72.96
2023-05-02T08:05:30.051Z,72.96
2023-05-02T08:06:30.334Z,73.67
2023-05-02T08:07:30.390Z,73.46
2023-05-02T08:08:30.478Z,73.36
2023-05-02T08:09:30.593Z,73.36
2023-05-02T08:10:30.692Z,73.06
2023-05-02T08:11:30.804Z,72.72
2023-05-02T08:12:30.888Z,72.62
2023-05-02T08:13:30.968Z,72.48
2023-05-02T08:14:31.161Z,72.17
2023-05-02T08:15:31.245Z,71.64
2023-05-02T08:16:31.431Z,71.33
2023-05-02T08:17:31.538Z,71.23
2023-05-02T08:18:31.592Z,71.53
2023-05-02T08:19:31.694Z,71.44
2023-05-02T08:20:31.789Z,71.53
2023-05-02T08:21:31.897Z,71.09
2023-05-02T08:22:31.989Z,70.35
2023-05-02T08:23:32.067Z,67.99
2023-05-02T08:24:32.156Z,65.98
2023-05-02T08:25:32.267Z,64.53
2023-05-02T08:26:32.353Z,64.23
2023-05-02T08:27:32.426Z,62.52
2023-05-02T08:28:32.521Z,60.63
2023-05-02T08:29:32.549Z,59.82
2023-05-02T08:30:32.605Z,59.92
2023-05-02T08:31:32.702Z,60.15
2023-05-02T08:32:32.777Z,61.18
2023-05-02T08:33:32.818Z,61.18
2023-05-02T08:34:32.864Z,61.41
2023-05-02T08:35:32.906Z,62.02
2023-05-02T08:36:32.979Z,61.08
2023-05-02T08:37:33.014Z,61.49
2023-05-02T08:38:33.054Z,60.88
2023-05-02T08:39:33.082Z,61.18
2023-05-02T08:40:40.963Z,61.35
2023-05-02T08:41:34.275Z,62.88
2023-05-02T08:42:33.314Z,63.22
2023-05-02T08:43:33.359Z,64.26
2023-05-02T08:44:33.417Z,64.67
2023-05-02T08:45:33.464Z,64.49
2023-05-02T08:46:33.637Z,64.70
2023-05-02T08:47:33.735Z,65.13
2023-05-02T08:48:33.745Z,65.13
2023-05-02T08:49:33.793Z,65.36
2023-05-02T08:50:33.857Z,65.97
2023-05-02T08:51:33.914Z,66.50
2023-05-02T08:52:34.089Z,66.50
2023-05-02T08:53:34.163Z,66.71
2023-05-02T08:54:34.244Z,66.71
2023-05-02T08:55:34.279Z,67.01
2023-05-02T08:56:34.350Z,67.01
2023-05-02T08:57:34.437Z,67.25
2023-05-02T08:58:34.504Z,67.65
2023-05-02T08:59:34.552Z,67.89
2023-05-02T09:00:34.644Z,68.40
2023-05-02T09:01:34.755Z,68.49
2023-05-02T09:02:34.870Z,68.83
2023-05-02T09:03:34.949Z,69.03
2023-05-02T09:04:35.108Z,69.24
2023-05-02T09:05:35.145Z,69.13
2023-05-02T09:06:35.245Z,69.57
2023-05-02T09:07:35.337Z,69.78
2023-05-02T09:08:35.432Z,70.18
2023-05-02T09:09:35.503Z,70.48
2023-05-02T09:10:35.699Z,70.28
2023-05-02T09:11:35.795Z,70.39
2023-05-02T09:12:35.887Z,69.74
2023-05-02T09:13:35.980Z,69.44
2023-05-02T09:14:36.058Z,69.10
2023-05-02T09:15:36.160Z,69.00
2023-05-02T09:16:36.312Z,68.77
2023-05-02T09:17:36.465Z,68.77
2023-05-02T09:18:36.534Z,68.26
2023-05-02T09:19:36.610Z,68.13
2023-05-02T09:20:36.701Z,67.82
2023-05-02T09:21:36.826Z,67.42
2023-05-02T09:22:36.915Z,67.49
2023-05-02T09:23:36.987Z,67.18
2023-05-02T09:24:37.080Z,67.18
2023-05-02T09:25:37.158Z,67.62
2023-05-02T09:26:37.240Z,68.13
2023-05-02T09:27:37.318Z,68.02
2023-05-02T09:28:37.413Z,68.13
2023-05-02T09:29:37.501Z,68.94
2023-05-02T09:30:37.645Z,68.43
2023-05-02T09:32:37.881Z,68.66
2023-05-02T09:33:37.816Z,68.97
2023-05-02T09:34:38.009Z,69.07
2023-05-02T09:35:38.093Z,69.27
2023-05-02T09:36:38.162Z,69.48
2023-05-02T09:37:38.293Z,69.71
2023-05-02T09:38:38.386Z,69.81
2023-05-02T09:39:38.487Z,70.32
2023-05-02T09:40:38.618Z,70.32
2023-05-02T09:41:38.660Z,70.42
2023-05-02T09:42:38.787Z,70.42
2023-05-02T09:43:38.868Z,70.52
2023-05-02T09:44:38.989Z,70.32
2023-05-02T09:45:39.086Z,70.83
2023-05-02T09:46:39.368Z,70.69
2023-05-02T09:47:39.361Z,69.88
2023-05-02T09:48:39.421Z,69.54
2023-05-02T09:49:39.530Z,68.23
2023-05-02T09:50:39.624Z,68.23
2023-05-02T09:51:39.699Z,67.99
2023-05-02T09:52:39.796Z,68.10
2023-05-02T09:53:39.868Z,68.16
2023-05-02T09:54:39.961Z,67.46
2023-05-02T09:55:40.027Z,67.25
2023-05-02T09:56:40.125Z,67.59
2023-05-02T09:57:40.216Z,67.93
2023-05-02T09:58:40.289Z,68.33
2023-05-02T09:59:40.398Z,68.77
2023-05-02T10:00:40.457Z,68.87
2023-05-02T10:01:40.674Z,69.37
2023-05-02T10:02:40.791Z,69.71
2023-05-02T10:03:40.860Z,70.01
2023-05-02T10:04:41.084Z,70.42
2023-05-02T10:05:41.079Z,70.42
2023-05-02T10:06:41.174Z,70.21
2023-05-02T10:07:41.249Z,70.08
2023-05-02T10:08:41.328Z,69.78
2023-05-02T10:09:41.438Z,69.98
2023-05-02T10:10:41.568Z,69.57
2023-05-02T10:11:41.658Z,69.61
2023-05-02T10:12:41.766Z,69.51
2023-05-02T10:13:41.872Z,69.81
2023-05-02T10:14:41.985Z,70.56
2023-05-02T10:15:42.138Z,70.25
2023-05-02T10:16:42.188Z,70.56
2023-05-02T10:17:42.459Z,70.76
2023-05-02T10:18:42.375Z,70.86
2023-05-02T10:19:42.464Z,70.56
2023-05-02T10:20:42.656Z,70.96
2023-05-02T10:21:42.727Z,70.52
2023-05-02T10:22:42.841Z,69.98
2023-05-02T10:23:42.923Z,70.18
2023-05-02T10:24:43.004Z,69.95
2023-05-02T10:25:43.081Z,70.18
2023-05-02T10:26:43.192Z,70.49
2023-05-02T10:27:43.288Z,71.53
2023-05-02T10:28:43.382Z,72.08
2023-05-02T10:29:43.468Z,72.48
2023-05-02T10:30:43.677Z,73.22
2023-05-02T10:31:44.875Z,74.07
2023-05-02T10:32:43.969Z,74.58
2023-05-02T10:33:44.063Z,74.92
2023-05-02T10:34:44.200Z,75.97
2023-05-02T10:35:44.316Z,76.41
2023-05-02T10:36:44.409Z,76.61
2023-05-02T10:37:44.515Z,76.86
2023-05-02T10:38:44.981Z,77.06
2023-05-02T10:39:44.737Z,76.86
2023-05-02T10:40:44.990Z,76.86
2023-05-02T10:41:45.108Z,76.82
2023-05-02T10:42:45.277Z,76.61
2023-05-02T10:43:45.372Z,76.61
2023-05-02T10:44:45.590Z,76.14
2023-05-02T10:45:45.701Z,76.21
2023-05-02T10:46:45.848Z,76.21
2023-05-02T10:47:45.996Z,75.90
2023-05-02T10:48:46.125Z,75.84
2023-05-02T10:49:46.223Z,75.49
2023-05-02T10:50:46.344Z,75.49
2023-05-02T10:51:46.432Z,75.67
2023-05-02T10:52:46.555Z,76.48
2023-05-02T10:53:46.669Z,77.03
2023-05-02T10:54:46.760Z,77.47
2023-05-02T10:55:46.872Z,77.87
2023-05-02T10:56:46.967Z,78.08
2023-05-02T10:57:47.087Z,78.08
2023-05-02T10:58:47.187Z,78.19
2023-05-02T10:59:47.307Z,78.08
2023-05-02T11:00:47.409Z,77.98
2023-05-02T11:01:47.658Z,77.06
2023-05-02T11:02:47.832Z,77.06
2023-05-02T11:03:47.833Z,77.17
2023-05-02T11:04:47.933Z,77.67
2023-05-02T11:05:48.046Z,77.87
2023-05-02T11:06:48.223Z,77.57
2023-05-02T11:07:48.302Z,77.81
2023-05-02T11:08:48.392Z,77.71
2023-05-02T11:09:48.499Z,77.71
2023-05-02T11:10:48.632Z,77.30
2023-05-02T11:11:48.722Z,77.51
2023-05-02T11:12:48.896Z,76.79
2023-05-02T11:13:49.011Z,76.79
2023-05-02T11:14:49.093Z,76.90
2023-05-02T11:15:49.226Z,76.69
2023-05-02T11:16:49.387Z,75.98
2023-05-02T11:17:49.527Z,75.27
2023-05-02T11:18:49.631Z,75.27
2023-05-02T11:19:49.835Z,74.86
2023-05-02T11:20:49.844Z,74.25
2023-05-02T11:21:49.938Z,73.19
2023-05-02T11:22:50.056Z,72.28
2023-05-02T11:23:50.156Z,72.08
2023-05-02T11:24:50.345Z,71.53
2023-05-02T11:25:57.502Z,71.43
2023-05-02T11:26:50.551Z,70.92
2023-05-02T11:27:50.773Z,70.58
2023-05-02T11:28:50.868Z,69.80
2023-05-02T11:29:51.064Z,69.80
2023-05-02T11:30:51.174Z,69.77
2023-05-02T11:31:51.297Z,69.02
2023-05-02T11:32:51.520Z,68.49
2023-05-02T11:33:51.594Z,67.57
2023-05-02T11:34:51.685Z,67.44
2023-05-02T11:35:51.797Z,66.52
2023-05-02T11:36:51.860Z,66.22
2023-05-02T11:37:52.165Z,66.25
2023-05-02T11:38:52.178Z,66.32
2023-05-02T11:39:52.282Z,65.81
2023-05-02T11:40:52.360Z,65.68
2023-05-02T11:41:52.551Z,65.33
2023-05-02T11:42:52.665Z,65.77
2023-05-02T11:43:52.744Z,66.08
2023-05-02T11:44:52.857Z,66.89
2023-05-02T11:45:52.960Z,66.49
2023-05-02T11:46:53.022Z,65.54
2023-05-02T11:47:53.198Z,65.03
2023-05-02T11:48:53.367Z,65.36
2023-05-02T11:49:53.347Z,66.08
2023-05-02T11:50:53.422Z,65.74
2023-05-02T11:51:53.569Z,65.03
2023-05-02T11:52:53.638Z,64.32
2023-05-02T11:53:53.834Z,64.73
2023-05-02T11:54:53.837Z,64.32
2023-05-02T11:55:54.029Z,64.12
2023-05-02T11:56:54.104Z,65.06
2023-05-02T11:57:54.202Z,65.16
2023-05-02T11:58:54.303Z,65.23
2023-05-02T11:59:54.385Z,65.44
2023-05-02T12:00:54.552Z,64.12
2023-05-02T12:01:54.557Z,64.73
2023-05-02T12:02:54.822Z,64.12
2023-05-02T12:03:54.875Z,64.12
2023-05-02T12:04:54.914Z,64.01
2023-05-02T12:05:55.195Z,64.70
2023-05-02T12:06:55.295Z,63.37
2023-05-02T12:07:55.369Z,62.87
2023-05-02T12:08:55.453Z,62.90
2023-05-02T12:09:55.603Z,63.60
2023-05-02T12:10:55.691Z,63.94
2023-05-02T12:11:55.778Z,64.69
2023-05-02T12:12:55.879Z,64.38
2023-05-02T12:13:55.981Z,64.69
2023-05-02T12:14:56.069Z,65.19
2023-05-02T12:15:56.262Z,65.06
2023-05-02T12:16:56.252Z,64.96
2023-05-02T12:17:56.542Z,64.42
2023-05-02T12:18:56.414Z,63.91
2023-05-02T12:19:56.616Z,63.78
2023-05-02T12:20:56.823Z,63.17
2023-05-02T12:21:56.941Z,63.37
2023-05-02T12:22:57.054Z,63.48
2023-05-02T12:23:57.223Z,62.53
2023-05-02T12:24:57.273Z,62.36
2023-05-02T12:25:57.356Z,62.74
2023-05-02T12:26:57.444Z,62.40
2023-05-02T12:27:57.541Z,61.90
2023-05-02T12:28:57.606Z,61.59
2023-05-02T12:29:57.787Z,61.36
2023-05-02T12:30:57.880Z,60.44
2023-05-02T12:31:57.988Z,60.55
2023-05-02T12:32:58.066Z,60.35
2023-05-02T12:33:58.212Z,60.37
2023-05-02T12:34:58.237Z,61.08
2023-05-02T12:35:58.319Z,60.75
2023-05-02T12:36:58.497Z,60.44
2023-05-02T12:37:58.604Z,60.28
2023-05-02T12:38:58.724Z,58.81
2023-05-02T12:39:58.779Z,58.18
2023-05-02T12:40:58.880Z,57.44
2023-05-02T12:41:58.943Z,57.01
2023-05-02T12:42:59.037Z,56.48
2023-05-02T12:43:59.112Z,56.20
2023-05-02T12:44:59.166Z,56.36
2023-05-02T12:45:59.262Z,57.09
2023-05-02T12:46:59.411Z,57.70
2023-05-02T12:47:59.508Z,57.78
2023-05-02T12:48:59.542Z,56.94
2023-05-02T12:49:59.871Z,56.13
2023-05-02T12:50:59.804Z,57.40
2023-05-02T12:51:59.983Z,57.60
2023-05-02T12:53:00.041Z,57.29
2023-05-02T12:54:00.150Z,57.32
2023-05-02T12:55:00.166Z,57.75